sensor_id;sensor_type;location;lat;lon;timestamp;P1;durP1;ratioP1;P2;durP2;ratioP2
13685;SDS011;6915;48.296;8.874;2023-09-07T00:01:44;4.83;;;4.43;;
13685;SDS011;6915;48.296;8.874;2023-09-07T00:04:12;4.53;;;4.20;;
13685;SDS011;6915;48.296;8.874;2023-09-07T00:06:41;4.53;;;4.23;;
13685;SDS011;6915;48.296;8.874;2023-09-07T00:09:10;6.63;;;4.30;;
13685;SDS011;6915;48.296;8.874;2023-09-07T00:11:41;5.10;;;4.60;;
13685;SDS011;6915;48.296;8.874;2023-09-07T00:14:11;4.63;;;4.23;;
13685;SDS011;6915;48.296;8.874;2023-09-07T00:16:40;4.93;;;4.53;;
13685;SDS011;6915;48.296;8.874;2023-09-07T00:19:08;4.20;;;3.80;;
13685;SDS011;6915;48.296;8.874;2023-09-07T00:21:37;4.67;;;4.20;;
13685;SDS011;6915;48.296;8.874;2023-09-07T00:24:05;4.93;;;4.27;;
13685;SDS011;6915;48.296;8.874;2023-09-07T00:26:35;4.33;;;4.00;;
13685;SDS011;6915;48.296;8.874;2023-09-07T00:29:04;4.33;;;3.67;;
13685;SDS011;6915;48.296;8.874;2023-09-07T00:31:33;4.53;;;4.10;;
13685;SDS011;6915;48.296;8.874;2023-09-07T00:34:00;4.50;;;4.10;;
13685;SDS011;6915;48.296;8.874;2023-09-07T00:36:29;5.93;;;4.67;;
13685;SDS011;6915;48.296;8.874;2023-09-07T00:38:58;4.23;;;3.93;;
13685;SDS011;6915;48.296;8.874;2023-09-07T00:41:27;4.43;;;3.83;;
13685;SDS011;6915;48.296;8.874;2023-09-07T00:43:58;4.93;;;4.10;;
13685;SDS011;6915;48.296;8.874;2023-09-07T00:46:26;4.40;;;4.00;;
13685;SDS011;6915;48.296;8.874;2023-09-07T00:48:56;3.63;;;3.43;;
13685;SDS011;6915;48.296;8.874;2023-09-07T00:51:25;4.33;;;3.93;;
13685;SDS011;6915;48.296;8.874;2023-09-07T00:53:54;4.30;;;3.90;;
13685;SDS011;6915;48.296;8.874;2023-09-07T00:56:23;4.20;;;3.43;;
13685;SDS011;6915;48.296;8.874;2023-09-07T00:58:53;4.30;;;3.60;;
13685;SDS011;6915;48.296;8.874;2023-09-07T01:01:24;4.33;;;3.70;;
13685;SDS011;6915;48.296;8.874;2023-09-07T01:03:53;4.67;;;3.97;;
13685;SDS011;6915;48.296;8.874;2023-09-07T01:06:25;4.27;;;3.80;;
13685;SDS011;6915;48.296;8.874;2023-09-07T01:08:57;4.10;;;3.80;;
13685;SDS011;6915;48.296;8.874;2023-09-07T01:11:35;4.97;;;3.60;;
13685;SDS011;6915;48.296;8.874;2023-09-07T01:14:04;4.37;;;3.67;;
13685;SDS011;6915;48.296;8.874;2023-09-07T01:16:33;5.90;;;3.63;;
13685;SDS011;6915;48.296;8.874;2023-09-07T01:19:03;5.67;;;4.07;;
13685;SDS011;6915;48.296;8.874;2023-09-07T01:21:36;5.93;;;3.93;;
13685;SDS011;6915;48.296;8.874;2023-09-07T01:24:06;4.47;;;3.67;;
13685;SDS011;6915;48.296;8.874;2023-09-07T01:26:36;5.57;;;3.80;;
13685;SDS011;6915;48.296;8.874;2023-09-07T01:29:05;5.43;;;3.60;;
13685;SDS011;6915;48.296;8.874;2023-09-07T01:31:35;3.50;;;3.00;;
13685;SDS011;6915;48.296;8.874;2023-09-07T01:34:04;4.03;;;3.33;;
13685;SDS011;6915;48.296;8.874;2023-09-07T01:36:33;3.80;;;3.40;;
13685;SDS011;6915;48.296;8.874;2023-09-07T01:39:02;3.80;;;3.50;;
13685;SDS011;6915;48.296;8.874;2023-09-07T01:41:30;3.83;;;3.53;;
13685;SDS011;6915;48.296;8.874;2023-09-07T01:43:59;3.87;;;3.27;;
13685;SDS011;6915;48.296;8.874;2023-09-07T01:46:28;3.90;;;3.63;;
13685;SDS011;6915;48.296;8.874;2023-09-07T01:48:58;3.37;;;3.17;;
13685;SDS011;6915;48.296;8.874;2023-09-07T01:51:26;5.17;;;3.33;;
13685;SDS011;6915;48.296;8.874;2023-09-07T01:53:56;4.07;;;3.30;;
13685;SDS011;6915;48.296;8.874;2023-09-07T01:56:25;4.27;;;3.33;;
13685;SDS011;6915;48.296;8.874;2023-09-07T01:58:53;3.83;;;3.20;;
13685;SDS011;6915;48.296;8.874;2023-09-07T02:01:22;3.90;;;3.53;;
13685;SDS011;6915;48.296;8.874;2023-09-07T02:03:52;3.80;;;3.47;;
13685;SDS011;6915;48.296;8.874;2023-09-07T02:06:21;3.70;;;3.40;;
13685;SDS011;6915;48.296;8.874;2023-09-07T02:08:50;4.63;;;3.67;;
13685;SDS011;6915;48.296;8.874;2023-09-07T02:11:20;3.80;;;3.50;;
13685;SDS011;6915;48.296;8.874;2023-09-07T02:13:50;3.73;;;3.43;;
13685;SDS011;6915;48.296;8.874;2023-09-07T02:16:19;3.67;;;3.47;;
13685;SDS011;6915;48.296;8.874;2023-09-07T02:18:49;7.60;;;3.90;;
13685;SDS011;6915;48.296;8.874;2023-09-07T02:21:25;4.30;;;3.50;;
13685;SDS011;6915;48.296;8.874;2023-09-07T02:23:54;3.57;;;3.30;;
13685;SDS011;6915;48.296;8.874;2023-09-07T02:26:24;3.97;;;3.60;;
13685;SDS011;6915;48.296;8.874;2023-09-07T02:28:53;3.77;;;3.47;;
13685;SDS011;6915;48.296;8.874;2023-09-07T02:31:21;3.67;;;3.37;;
13685;SDS011;6915;48.296;8.874;2023-09-07T02:33:50;3.30;;;3.10;;
13685;SDS011;6915;48.296;8.874;2023-09-07T02:36:18;4.10;;;3.77;;
13685;SDS011;6915;48.296;8.874;2023-09-07T02:38:47;3.83;;;3.13;;
13685;SDS011;6915;48.296;8.874;2023-09-07T02:41:15;4.10;;;3.70;;
13685;SDS011;6915;48.296;8.874;2023-09-07T02:43:45;4.97;;;3.57;;
13685;SDS011;6915;48.296;8.874;2023-09-07T02:46:14;3.40;;;3.17;;
13685;SDS011;6915;48.296;8.874;2023-09-07T02:48:42;3.63;;;3.33;;
13685;SDS011;6915;48.296;8.874;2023-09-07T02:51:11;4.13;;;3.83;;
13685;SDS011;6915;48.296;8.874;2023-09-07T02:53:40;4.80;;;3.83;;
13685;SDS011;6915;48.296;8.874;2023-09-07T02:56:08;3.67;;;3.37;;
13685;SDS011;6915;48.296;8.874;2023-09-07T02:58:37;4.50;;;3.60;;
13685;SDS011;6915;48.296;8.874;2023-09-07T03:01:07;4.90;;;3.70;;
13685;SDS011;6915;48.296;8.874;2023-09-07T03:03:36;3.80;;;3.43;;
13685;SDS011;6915;48.296;8.874;2023-09-07T03:06:17;4.20;;;3.90;;
13685;SDS011;6915;48.296;8.874;2023-09-07T03:09:11;3.97;;;3.67;;
13685;SDS011;6915;48.296;8.874;2023-09-07T03:13:02;3.37;;;3.17;;
13685;SDS011;6915;48.296;8.874;2023-09-07T03:15:10;4.90;;;3.40;;
13685;SDS011;6915;48.296;8.874;2023-09-07T03:20:47;3.70;;;3.50;;
13685;SDS011;6915;48.296;8.874;2023-09-07T05:40:45;4.27;;;3.87;;
13685;SDS011;6915;48.296;8.874;2023-09-07T05:43:43;5.43;;;4.03;;
13685;SDS011;6915;48.296;8.874;2023-09-07T05:46:19;4.23;;;3.93;;
13685;SDS011;6915;48.296;8.874;2023-09-07T05:48:57;5.73;;;4.20;;
13685;SDS011;6915;48.296;8.874;2023-09-07T05:51:27;5.60;;;4.40;;
13685;SDS011;6915;48.296;8.874;2023-09-07T05:53:57;4.27;;;3.63;;
13685;SDS011;6915;48.296;8.874;2023-09-07T05:56:28;5.63;;;3.73;;
13685;SDS011;6915;48.296;8.874;2023-09-07T05:58:58;3.70;;;3.40;;
13685;SDS011;6915;48.296;8.874;2023-09-07T06:01:28;3.47;;;3.17;;
13685;SDS011;6915;48.296;8.874;2023-09-07T06:04:25;4.93;;;3.53;;
13685;SDS011;6915;48.296;8.874;2023-09-07T06:06:55;4.03;;;3.70;;
13685;SDS011;6915;48.296;8.874;2023-09-07T06:09:35;4.07;;;3.60;;
13685;SDS011;6915;48.296;8.874;2023-09-07T06:14:41;3.70;;;3.40;;
13685;SDS011;6915;48.296;8.874;2023-09-07T06:17:17;4.47;;;3.63;;
13685;SDS011;6915;48.296;8.874;2023-09-07T06:19:54;4.10;;;3.70;;
13685;SDS011;6915;48.296;8.874;2023-09-07T06:22:23;5.17;;;3.60;;
13685;SDS011;6915;48.296;8.874;2023-09-07T06:25:04;4.00;;;3.60;;
13685;SDS011;6915;48.296;8.874;2023-09-07T06:27:33;6.90;;;4.20;;
13685;SDS011;6915;48.296;8.874;2023-09-07T06:30:08;4.27;;;3.87;;
13685;SDS011;6915;48.296;8.874;2023-09-07T06:32:41;4.67;;;4.27;;
13685;SDS011;6915;48.296;8.874;2023-09-07T06:35:09;6.10;;;4.20;;
13685;SDS011;6915;48.296;8.874;2023-09-07T06:37:39;4.93;;;4.43;;
13685;SDS011;6915;48.296;8.874;2023-09-07T06:40:09;4.20;;;3.90;;
13685;SDS011;6915;48.296;8.874;2023-09-07T06:42:40;4.90;;;4.10;;
13685;SDS011;6915;48.296;8.874;2023-09-07T06:45:11;5.00;;;4.40;;
13685;SDS011;6915;48.296;8.874;2023-09-07T06:47:40;5.30;;;4.80;;
13685;SDS011;6915;48.296;8.874;2023-09-07T06:50:20;7.63;;;4.90;;
13685;SDS011;6915;48.296;8.874;2023-09-07T06:52:49;6.50;;;4.60;;
13685;SDS011;6915;48.296;8.874;2023-09-07T06:55:18;5.37;;;4.87;;
13685;SDS011;6915;48.296;8.874;2023-09-07T06:57:46;6.20;;;5.23;;
13685;SDS011;6915;48.296;8.874;2023-09-07T07:00:45;8.60;;;5.17;;
13685;SDS011;6915;48.296;8.874;2023-09-07T07:03:37;5.50;;;5.00;;
13685;SDS011;6915;48.296;8.874;2023-09-07T07:06:23;5.47;;;4.85;;
13685;SDS011;6915;48.296;8.874;2023-09-07T07:09:00;7.10;;;5.60;;
13685;SDS011;6915;48.296;8.874;2023-09-07T07:12:11;5.45;;;4.65;;
13685;SDS011;6915;48.296;8.874;2023-09-07T07:15:10;5.85;;;5.25;;
13685;SDS011;6915;48.296;8.874;2023-09-07T07:18:12;5.63;;;5.07;;
13685;SDS011;6915;48.296;8.874;2023-09-07T07:21:02;5.75;;;4.88;;
13685;SDS011;6915;48.296;8.874;2023-09-07T07:23:39;5.82;;;5.32;;
13685;SDS011;6915;48.296;8.874;2023-09-07T07:26:17;5.63;;;4.97;;
13685;SDS011;6915;48.296;8.874;2023-09-07T07:28:53;5.95;;;5.20;;
13685;SDS011;6915;48.296;8.874;2023-09-07T07:31:29;5.97;;;5.18;;
13685;SDS011;6915;48.296;8.874;2023-09-07T07:34:06;6.30;;;5.22;;
13685;SDS011;6915;48.296;8.874;2023-09-07T07:36:50;5.53;;;5.13;;
13685;SDS011;6915;48.296;8.874;2023-09-07T07:39:27;6.43;;;5.82;;
13685;SDS011;6915;48.296;8.874;2023-09-07T07:42:08;8.07;;;5.75;;
13685;SDS011;6915;48.296;8.874;2023-09-07T07:44:58;6.80;;;5.75;;
13685;SDS011;6915;48.296;8.874;2023-09-07T07:47:48;6.75;;;6.15;;
13685;SDS011;6915;48.296;8.874;2023-09-07T07:50:47;8.02;;;6.65;;
13685;SDS011;6915;48.296;8.874;2023-09-07T07:53:48;7.30;;;6.50;;
13685;SDS011;6915;48.296;8.874;2023-09-07T07:56:23;7.25;;;6.65;;
13685;SDS011;6915;48.296;8.874;2023-09-07T08:17:57;9.00;;;7.93;;
13685;SDS011;6915;48.296;8.874;2023-09-07T08:21:00;8.25;;;7.45;;
13685;SDS011;6915;48.296;8.874;2023-09-07T09:48:55;7.78;;;5.93;;
13685;SDS011;6915;48.296;8.874;2023-09-07T09:51:25;7.35;;;6.00;;
13685;SDS011;6915;48.296;8.874;2023-09-07T09:53:54;6.63;;;5.65;;
13685;SDS011;6915;48.296;8.874;2023-09-07T09:56:23;6.35;;;5.80;;
13685;SDS011;6915;48.296;8.874;2023-09-07T09:58:52;5.47;;;5.00;;
13685;SDS011;6915;48.296;8.874;2023-09-07T10:01:21;5.50;;;5.00;;
13685;SDS011;6915;48.296;8.874;2023-09-07T10:03:50;6.15;;;5.55;;
13685;SDS011;6915;48.296;8.874;2023-09-07T10:06:22;6.10;;;5.50;;
13685;SDS011;6915;48.296;8.874;2023-09-07T10:08:55;6.40;;;5.78;;
13685;SDS011;6915;48.296;8.874;2023-09-07T10:11:29;7.13;;;6.43;;
13685;SDS011;6915;48.296;8.874;2023-09-07T10:13:58;5.95;;;5.38;;
13685;SDS011;6915;48.296;8.874;2023-09-07T10:16:29;6.07;;;5.50;;
13685;SDS011;6915;48.296;8.874;2023-09-07T10:19:13;6.20;;;5.60;;
13685;SDS011;6915;48.296;8.874;2023-09-07T10:21:44;6.00;;;5.40;;
13685;SDS011;6915;48.296;8.874;2023-09-07T10:24:23;5.85;;;5.35;;
13685;SDS011;6915;48.296;8.874;2023-09-07T10:27:00;5.95;;;5.45;;
13685;SDS011;6915;48.296;8.874;2023-09-07T10:29:40;6.50;;;5.93;;
13685;SDS011;6915;48.296;8.874;2023-09-07T10:32:13;7.35;;;5.15;;
13685;SDS011;6915;48.296;8.874;2023-09-07T10:34:42;7.18;;;5.30;;
13685;SDS011;6915;48.296;8.874;2023-09-07T10:37:12;5.97;;;5.45;;
13685;SDS011;6915;48.296;8.874;2023-09-07T10:39:41;7.40;;;6.22;;
13685;SDS011;6915;48.296;8.874;2023-09-07T10:42:19;7.15;;;6.43;;
13685;SDS011;6915;48.296;8.874;2023-09-07T10:44:48;6.63;;;6.05;;
13685;SDS011;6915;48.296;8.874;2023-09-07T10:47:18;5.90;;;5.43;;
13685;SDS011;6915;48.296;8.874;2023-09-07T10:49:46;6.82;;;5.68;;
13685;SDS011;6915;48.296;8.874;2023-09-07T10:52:17;6.10;;;5.60;;
13685;SDS011;6915;48.296;8.874;2023-09-07T10:54:45;5.45;;;4.78;;
13685;SDS011;6915;48.296;8.874;2023-09-07T10:57:23;5.40;;;5.03;;
13685;SDS011;6915;48.296;8.874;2023-09-07T10:59:52;4.63;;;4.15;;
13685;SDS011;6915;48.296;8.874;2023-09-07T11:02:21;5.40;;;5.00;;
13685;SDS011;6915;48.296;8.874;2023-09-07T11:04:49;5.30;;;4.63;;
13685;SDS011;6915;48.296;8.874;2023-09-07T11:07:20;8.15;;;4.40;;
13685;SDS011;6915;48.296;8.874;2023-09-07T11:09:51;6.13;;;4.57;;
13685;SDS011;6915;48.296;8.874;2023-09-07T11:12:20;4.57;;;4.15;;
13685;SDS011;6915;48.296;8.874;2023-09-07T11:14:49;6.40;;;4.25;;
13685;SDS011;6915;48.296;8.874;2023-09-07T16:27:11;8.38;;;3.92;;
13685;SDS011;6915;48.296;8.874;2023-09-07T16:29:40;5.28;;;4.00;;
13685;SDS011;6915;48.296;8.874;2023-09-07T16:32:12;4.55;;;3.95;;
13685;SDS011;6915;48.296;8.874;2023-09-07T16:34:42;4.68;;;3.95;;
13685;SDS011;6915;48.296;8.874;2023-09-07T16:37:18;4.40;;;3.80;;
13685;SDS011;6915;48.296;8.874;2023-09-07T16:47:38;4.05;;;3.75;;
13685;SDS011;6915;48.296;8.874;2023-09-07T16:50:07;7.65;;;4.10;;
13685;SDS011;6915;48.296;8.874;2023-09-07T16:52:36;4.32;;;3.65;;
13685;SDS011;6915;48.296;8.874;2023-09-07T16:55:05;4.07;;;3.78;;
13685;SDS011;6915;48.296;8.874;2023-09-07T16:57:34;4.50;;;3.90;;
